Summerville, Pennsylvania
Current Conditions -  °F | °C
As of 5:53 PM on Thursday 18 Dec 2014 (Local Time) from KDUJ Reporting Station
Overcast Overcast  
Wind Chill: 16°   Ceiling: 1100
Heat Index: 26°   Visibility: 10mi
Dew Point: 24°   Wind: 10mph
Humidity: 92%   Direction: 280°W
Pressure: 30.06"   Gusts: NA
Location:  41.12°N, 79.19°W
Report Text: KDUJ 182253Z AUTO 28009KT 10SM OVC011 M03/M04 A3006 RMK AO2 SLP201 T10331044
Loading
Personal Weather Stations






























Interactive Weather Map New forecast layout! Learn more

10-Day Weather Forecast

Advertisements
Track Severe Weather on mobile